Minneapolis-St Paul International/Wold-Chamberlain Airport
KMSP : now visible

Airfield :











YOU CAN JOIN US ON...

 
LOGIN :

Register | Disclaimer

   EN    FR    IT 

 









Legend :    VFR   Marginal VFR   IFR   Intensive IFR   Very Intensive IFR
Visi :
Ceiling :
>= 8 km
>= 3000ft
5 to 8 km
1000 to 3000 ft
1500m to 5 km
500 to 1000 ft
800 to 1500m
200 to 500 ft
< 800m
< 200 ft
Symbols :   Thunderstorms  Fog  Heavy snow  Heavy precipitations  Wind > 20 kt






- Airport Elevation : 841 ft
- IATA code : MSP


KMSP - Minneapolis-St Paul International/Wold-Chamberlain

CURRENT METAR :
  • 090953Z 04005KT 4SM BR SCT007 OVC017 01/M01 A2961 RMK AO2 SLP036 T00061011

EXPIRED METARs :
  • 090905Z 34004KT 5SM BR BKN007 OVC017 01/M01 A2965 RMK AO2 T00061011
  • 090846Z 36004KT 5SM BR OVC016 01/M01 A2965 RMK AO2 T00061011
  • 090753Z 02005KT 5SM BR OVC013 01/M01 A2966 RMK AO2 SLP053 T00111011

TAF KMSP
Valid from the 09 at 08:00 until the 10 at 12:00 UTC


090826Z 0908/1012 02008KT 4SM BR OVC012
FM091030 35010KT 1SM -SN BR OVC004
TEMPO 0912/0915 35010G20KT 1/2SM SN FZFG VV002
FM091600 33013G21KT 4SM -SN BR OVC009
FM092000 32014G22KT 6SM -SHSN OVC016
FM092300 31013G19KT P6SM OVC018
FM100200 29010KT P6SM SCT020



MET'MAP, your aeronautical weather chart ! - Copyright ORBIFLY December 2007 - Disclaimer

ORBIFLY MET'MAP TEAM :

Programming & Development : Alexandra Zaïnal
Concept & original design : Baudouin d'Aumeries
Assistance for programming : Marc-Olivier Méhu
Technical & hardware support : Manuel Goepfert

Contact : metmap@orbifly.com




SOURCES & CREDITS :

   NOAA       Earth
Advisory